createdAt,value
2018-05-25T00:01:12.552Z,95830.11
2018-05-25T00:03:40.794Z,95824.98
2018-05-25T00:06:09.803Z,95830.77
2018-05-25T00:08:38.898Z,95817.70
2018-05-25T00:11:07.909Z,95828.83
2018-05-25T00:13:36.150Z,95822.91
2018-05-25T00:16:05.162Z,95832.52
2018-05-25T00:18:33.409Z,95832.52
2018-05-25T00:21:01.643Z,95828.76
2018-05-25T00:23:29.894Z,95838.42
2018-05-25T00:25:58.136Z,95830.09
2018-05-25T00:28:26.543Z,95833.33
2018-05-25T00:30:54.782Z,95825.90
2018-05-25T00:33:23.019Z,95840.72
2018-05-25T00:35:51.272Z,95834.80
2018-05-25T00:38:19.501Z,95837.91
2018-05-25T00:40:47.740Z,95842.77
2018-05-25T00:43:15.977Z,95830.25
2018-05-25T00:45:44.979Z,95840.48
2018-05-25T00:48:14.000Z,95842.66
2018-05-25T00:50:42.229Z,95850.61
2018-05-25T00:53:10.462Z,95846.03
2018-05-25T00:55:40.437Z,95844.58
2018-05-25T00:58:09.429Z,95846.46
2018-05-25T01:00:38.838Z,95841.48
2018-05-25T01:03:07.847Z,95841.52
2018-05-25T01:05:36.090Z,95836.95
2018-05-25T01:08:05.118Z,95834.64
2018-05-25T01:10:33.354Z,95831.83
2018-05-25T01:13:02.221Z,95827.14
2018-05-25T01:15:30.478Z,95828.66
2018-05-25T01:17:58.711Z,95832.00
2018-05-25T01:20:27.795Z,95831.87
2018-05-25T01:22:56.042Z,95829.84
2018-05-25T01:25:24.290Z,95830.64
2018-05-25T01:27:52.535Z,95836.84
2018-05-25T01:30:21.536Z,95842.77
2018-05-25T01:32:50.427Z,95835.22
2018-05-25T01:35:18.675Z,95836.84
2018-05-25T01:37:46.898Z,95838.89
2018-05-25T01:40:15.141Z,95842.68
2018-05-25T01:42:44.143Z,95842.39
2018-05-25T01:45:12.382Z,95841.33
2018-05-25T01:47:40.627Z,95839.86
2018-05-25T01:50:08.869Z,95838.11
2018-05-25T01:52:37.884Z,95838.08
2018-05-25T01:55:06.114Z,95839.43
2018-05-25T01:57:34.357Z,95842.00
2018-05-25T02:00:02.593Z,95834.73
2018-05-25T02:02:30.828Z,95840.81
2018-05-25T02:04:59.075Z,95839.99
2018-05-25T02:07:27.321Z,95837.46
2018-05-25T02:09:56.331Z,95835.17
2018-05-25T02:12:24.574Z,95833.42
2018-05-25T02:14:53.579Z,95832.61
2018-05-25T02:17:22.594Z,95835.17
2018-05-25T02:19:50.846Z,95830.86
2018-05-25T02:22:19.086Z,95827.11
2018-05-25T02:24:47.325Z,95823.20
2018-05-25T02:27:15.561Z,95821.48
2018-05-25T02:29:44.581Z,95832.08
2018-05-25T02:32:12.818Z,95836.80
2018-05-25T02:34:41.057Z,95844.87
2018-05-25T02:37:09.313Z,95843.40
2018-05-25T02:39:37.546Z,95840.96
2018-05-25T02:42:06.154Z,95840.02
2018-05-25T02:44:34.390Z,95844.89
2018-05-25T02:47:02.629Z,95841.39
2018-05-25T02:49:30.882Z,95837.36
2018-05-25T02:51:59.114Z,95842.73
2018-05-25T02:54:28.118Z,95843.80
2018-05-25T02:56:56.367Z,95842.61
2018-05-25T02:59:24.812Z,95836.83
2018-05-25T03:01:53.042Z,95836.95
2018-05-25T03:04:21.278Z,95833.98
2018-05-25T03:06:49.530Z,95835.48
2018-05-25T03:09:17.769Z,95839.64
2018-05-25T03:11:46.035Z,95836.95
2018-05-25T03:14:14.264Z,95840.73
2018-05-25T03:16:42.499Z,95839.78
2018-05-25T03:19:11.007Z,95845.98
2018-05-25T03:21:40.005Z,95843.00
2018-05-25T03:24:08.246Z,95839.78
2018-05-25T03:26:36.495Z,95832.53
2018-05-25T03:29:04.726Z,95832.00
2018-05-25T03:31:34.042Z,95831.06
2018-05-25T03:34:02.282Z,95837.78
2018-05-25T03:36:30.514Z,95836.69
2018-05-25T03:38:58.778Z,95836.97
2018-05-25T03:41:27.016Z,95842.59
2018-05-25T03:43:56.029Z,95843.69
2018-05-25T03:46:24.269Z,95843.94
2018-05-25T03:48:52.519Z,95839.40
2018-05-25T03:51:21.157Z,95842.06
2018-05-25T03:53:50.156Z,95841.69
2018-05-25T03:56:18.398Z,95847.19
2018-05-25T03:59:04.751Z,95843.81
2018-05-25T04:01:50.822Z,95845.03
2018-05-25T04:04:19.165Z,95843.28
2018-05-25T04:06:47.407Z,95837.09
2018-05-25T04:09:15.642Z,95839.13
2018-05-25T04:11:44.670Z,95841.94
2018-05-25T04:14:12.920Z,95840.31
2018-05-25T04:16:42.230Z,95837.22
2018-05-25T04:19:10.468Z,95841.25
2018-05-25T04:21:38.705Z,95842.73
2018-05-25T04:24:07.359Z,95838.19
2018-05-25T04:26:35.590Z,95844.35
2018-05-25T04:29:03.847Z,95842.45
2018-05-25T04:31:32.489Z,95846.61
2018-05-25T04:34:00.724Z,95846.48
2018-05-25T04:36:28.954Z,95846.61
2018-05-25T04:38:57.197Z,95850.78
2018-05-25T04:41:26.202Z,95849.72
2018-05-25T04:43:55.614Z,95849.28
2018-05-25T04:46:23.845Z,95849.41
2018-05-25T04:48:52.078Z,95854.38
2018-05-25T04:51:20.546Z,95859.36
2018-05-25T04:53:49.693Z,95864.98
2018-05-25T04:56:17.934Z,95860.42
2018-05-25T04:58:46.190Z,95855.48
2018-05-25T05:01:15.180Z,95863.39
2018-05-25T05:03:44.173Z,95862.98
2018-05-25T05:06:13.188Z,95860.14
2018-05-25T05:08:41.422Z,95861.23
2018-05-25T05:11:09.674Z,95861.19
2018-05-25T05:13:37.921Z,95859.02
2018-05-25T05:16:06.174Z,95858.85
2018-05-25T05:18:34.406Z,95856.69
2018-05-25T05:21:02.664Z,95862.73
2018-05-25T05:23:30.903Z,95859.92
2018-05-25T05:25:59.134Z,95868.68
2018-05-25T05:28:27.387Z,95864.59
2018-05-25T05:30:55.627Z,95869.94
2018-05-25T05:33:23.858Z,95864.01
2018-05-25T05:35:53.622Z,95864.00
2018-05-25T05:38:22.185Z,95856.40
2018-05-25T05:40:51.233Z,95852.21
2018-05-25T05:43:19.430Z,95853.27
2018-05-25T05:45:47.679Z,95848.64
2018-05-25T05:48:15.910Z,95850.63
2018-05-25T05:50:44.914Z,95850.80
2018-05-25T05:53:13.178Z,95852.36
2018-05-25T05:55:42.178Z,95855.93
2018-05-25T05:58:11.181Z,95853.47
2018-05-25T06:00:39.410Z,95853.70
2018-05-25T06:03:07.641Z,95858.01
2018-05-25T06:05:35.894Z,95858.47
2018-05-25T06:08:04.134Z,95854.81
2018-05-25T06:10:32.755Z,95848.14
2018-05-25T06:13:01.132Z,95854.09
2018-05-25T06:15:30.122Z,95854.05
2018-05-25T06:17:59.142Z,95858.16
2018-05-25T06:20:27.372Z,95861.35
2018-05-25T06:22:55.667Z,95867.02
2018-05-25T06:25:24.702Z,95865.27
2018-05-25T06:27:53.352Z,95866.81
2018-05-25T06:30:21.585Z,95868.78
2018-05-25T06:32:49.819Z,95870.61
2018-05-25T06:35:18.073Z,95875.52
2018-05-25T06:37:47.094Z,95876.41
2018-05-25T06:40:15.334Z,95874.19
2018-05-25T06:42:44.343Z,95871.72
2018-05-25T06:45:12.595Z,95872.08
2018-05-25T06:47:40.830Z,95872.26
2018-05-25T06:50:09.066Z,95874.88
2018-05-25T06:52:37.314Z,95877.05
2018-05-25T06:55:05.553Z,95880.11
2018-05-25T06:57:33.784Z,95882.75
2018-05-25T07:00:02.827Z,95871.95
2018-05-25T07:02:31.174Z,95872.70
2018-05-25T07:04:59.405Z,95868.73
2018-05-25T07:07:27.642Z,95873.55
2018-05-25T07:09:55.886Z,95870.73
2018-05-25T07:12:24.278Z,95870.69
2018-05-25T07:14:52.518Z,95872.33
2018-05-25T07:17:20.770Z,95871.27
2018-05-25T07:19:49.019Z,95874.74
2018-05-25T07:22:17.266Z,95866.31
2018-05-25T07:24:46.262Z,95869.44
2018-05-25T07:27:14.518Z,95865.52
2018-05-25T07:29:42.751Z,95873.09
2018-05-25T07:32:10.984Z,95869.13
2018-05-25T07:34:39.994Z,95869.53
2018-05-25T07:37:08.225Z,95865.64
2018-05-25T07:39:37.047Z,95861.39
2018-05-25T07:42:05.345Z,95856.25
2018-05-25T07:44:33.569Z,95857.80
2018-05-25T07:47:01.813Z,95860.98
2018-05-25T07:49:30.045Z,95865.41
2018-05-25T07:51:59.062Z,95852.55
2018-05-25T07:54:27.402Z,95859.46
2018-05-25T07:56:56.327Z,95851.94
2018-05-25T07:59:24.555Z,95858.80
2018-05-25T08:01:52.785Z,95853.33
2018-05-25T08:04:21.035Z,95850.69
2018-05-25T08:06:50.037Z,95849.06
2018-05-25T08:09:18.277Z,95850.61
2018-05-25T08:11:46.531Z,95849.97
2018-05-25T08:14:14.782Z,95845.30
2018-05-25T08:16:43.019Z,95846.44
2018-05-25T08:19:12.041Z,95842.88
2018-05-25T08:21:40.324Z,95845.22
2018-05-25T08:24:08.527Z,95845.22
2018-05-25T08:26:36.757Z,95839.49
2018-05-25T08:29:05.329Z,95831.78
2018-05-25T08:31:34.340Z,95844.66
2018-05-25T08:34:02.581Z,95842.90
2018-05-25T08:36:31.603Z,95838.64
2018-05-25T08:38:59.831Z,95837.49
2018-05-25T08:41:29.598Z,95838.05
2018-05-25T08:43:57.834Z,95841.81
2018-05-25T08:46:26.071Z,95838.52
2018-05-25T08:48:54.316Z,95836.61
2018-05-25T08:51:22.550Z,95836.42
2018-05-25T08:53:50.806Z,95841.30
2018-05-25T08:56:19.237Z,95843.78
2018-05-25T08:58:48.239Z,95835.88
2018-05-25T09:01:16.541Z,95844.27
2018-05-25T09:03:45.505Z,95844.38
2018-05-25T09:06:13.765Z,95841.73
2018-05-25T09:08:43.066Z,95841.84
2018-05-25T09:11:12.091Z,95843.97
2018-05-25T09:13:40.317Z,95841.63
2018-05-25T09:16:08.580Z,95836.84
2018-05-25T09:18:36.819Z,95835.84
2018-05-25T09:21:05.062Z,95835.17
2018-05-25T09:23:34.080Z,95837.11
2018-05-25T09:26:02.322Z,95832.51
2018-05-25T09:28:31.340Z,95828.31
2018-05-25T09:30:59.662Z,95833.79
2018-05-25T09:33:27.822Z,95831.55
2018-05-25T09:35:56.064Z,95831.83
2018-05-25T09:38:24.313Z,95828.27
2018-05-25T09:40:53.337Z,95832.77
2018-05-25T09:43:21.613Z,95834.66
2018-05-25T09:45:49.819Z,95831.37
2018-05-25T09:48:18.071Z,95832.06
2018-05-25T09:50:46.315Z,95830.44
2018-05-25T09:53:14.546Z,95830.07
2018-05-25T09:55:42.801Z,95832.42
2018-05-25T09:58:11.042Z,95824.74
2018-05-25T10:00:40.049Z,95827.37
2018-05-25T10:03:08.339Z,95824.89
2018-05-25T10:05:37.313Z,95820.27
2018-05-25T10:08:06.310Z,95820.74
2018-05-25T10:10:34.586Z,95819.42
2018-05-25T10:13:04.305Z,95812.44
2018-05-25T10:15:32.882Z,95802.11
2018-05-25T10:18:01.127Z,95801.87
2018-05-25T10:20:29.366Z,95804.88
2018-05-25T10:22:57.627Z,95797.94
2018-05-25T10:25:25.871Z,95802.67
2018-05-25T10:27:54.882Z,95802.11
2018-05-25T10:30:23.130Z,95797.79
2018-05-25T10:32:52.134Z,95792.03
2018-05-25T10:35:21.155Z,95791.28
2018-05-25T10:37:49.394Z,95800.73
2018-05-25T10:40:18.611Z,95796.66
2018-05-25T10:42:46.845Z,95794.72
2018-05-25T10:45:15.082Z,95797.33
2018-05-25T10:47:43.338Z,95791.74
2018-05-25T10:50:12.338Z,95789.61
2018-05-25T10:52:40.586Z,95791.57
2018-05-25T10:55:09.130Z,95789.25
2018-05-25T10:57:37.476Z,95785.25
2018-05-25T11:00:05.711Z,95789.34
2018-05-25T11:02:34.162Z,95785.66
2018-05-25T11:05:02.402Z,95782.50
2018-05-25T11:07:30.651Z,95785.72
2018-05-25T11:09:59.702Z,95778.13
2018-05-25T11:12:27.917Z,95780.29
2018-05-25T11:14:56.917Z,95784.23
2018-05-25T11:17:26.126Z,95789.80
2018-05-25T11:19:55.127Z,95780.66
2018-05-25T11:22:23.356Z,95782.10
2018-05-25T11:24:51.808Z,95788.55
2018-05-25T11:27:20.082Z,95791.28
2018-05-25T11:29:49.068Z,95789.08
2018-05-25T11:32:17.322Z,95778.84
2018-05-25T11:34:46.318Z,95778.53
2018-05-25T11:37:14.571Z,95778.31
2018-05-25T11:39:43.574Z,95777.27
2018-05-25T11:42:12.803Z,95785.91
2018-05-25T11:44:41.032Z,95790.11
2018-05-25T11:47:09.267Z,95783.25
2018-05-25T11:49:37.511Z,95783.55
2018-05-25T11:52:05.811Z,95773.95
2018-05-25T11:54:34.047Z,95776.67
2018-05-25T11:57:03.058Z,95772.50
2018-05-25T11:59:31.318Z,95763.75
2018-05-25T12:02:00.426Z,95760.30
2018-05-25T12:04:28.670Z,95764.73
2018-05-25T12:06:57.004Z,95761.30
2018-05-25T12:09:25.226Z,95763.80
2018-05-25T12:11:53.476Z,95763.67
2018-05-25T12:14:21.709Z,95763.26
2018-05-25T12:16:50.186Z,95763.41
2018-05-25T12:19:18.435Z,95758.00
2018-05-25T12:21:46.661Z,95758.26
2018-05-25T12:24:14.921Z,95750.80
2018-05-25T12:26:43.153Z,95754.02
2018-05-25T12:29:12.190Z,95754.94
2018-05-25T12:31:40.421Z,95748.16
2018-05-25T12:34:08.685Z,95748.91
2018-05-25T12:36:36.913Z,95748.14
2018-05-25T12:39:05.167Z,95756.18
2018-05-25T12:41:34.698Z,95755.97
2018-05-25T12:44:02.988Z,95759.03
2018-05-25T12:46:31.212Z,95757.63
2018-05-25T12:48:59.454Z,95755.34
2018-05-25T12:51:27.691Z,95757.97
2018-05-25T12:53:55.941Z,95759.85
2018-05-25T12:56:24.174Z,95760.58
2018-05-25T12:58:52.427Z,95755.69
2018-05-25T13:01:20.658Z,95752.75
2018-05-25T13:03:48.905Z,95744.95
2018-05-25T13:06:17.163Z,95749.30
2018-05-25T13:08:45.393Z,95750.23
2018-05-25T13:11:13.757Z,95756.16
2018-05-25T13:13:42.001Z,95758.77
2018-05-25T13:16:10.246Z,95753.16
2018-05-25T13:18:38.502Z,95760.19
2018-05-25T13:21:06.729Z,95768.81
2018-05-25T13:23:34.985Z,95770.53
2018-05-25T13:26:03.217Z,95766.52
2018-05-25T13:28:31.462Z,95766.56
2018-05-25T13:30:59.710Z,95764.59
2018-05-25T13:33:27.951Z,95764.33
2018-05-25T13:35:56.962Z,95761.11
2018-05-25T13:38:29.141Z,95766.16
2018-05-25T13:40:57.386Z,95763.67
2018-05-25T13:43:25.660Z,95761.73
2018-05-25T13:45:53.973Z,95762.43
2018-05-25T13:48:22.198Z,95765.97
2018-05-25T13:50:51.374Z,95761.41
2018-05-25T13:53:19.814Z,95762.44
2018-05-25T13:55:48.814Z,95761.42
2018-05-25T13:58:17.058Z,95760.98
2018-05-25T14:00:45.461Z,95758.54
2018-05-25T14:03:14.462Z,95756.32
2018-05-25T14:05:42.703Z,95760.66
2018-05-25T14:08:10.951Z,95752.77
2018-05-25T14:10:39.200Z,95757.98
2018-05-25T14:13:07.440Z,95755.10
2018-05-25T14:15:36.437Z,95763.84
2018-05-25T14:18:05.445Z,95766.02
2018-05-25T14:20:33.679Z,95761.51
2018-05-25T14:23:02.186Z,95762.42
2018-05-25T14:25:30.405Z,95764.97
2018-05-25T14:27:58.654Z,95766.08
2018-05-25T14:30:26.889Z,95768.52
2018-05-25T14:32:55.146Z,95764.08
2018-05-25T14:35:23.381Z,95768.00
2018-05-25T14:37:51.636Z,95772.23
2018-05-25T14:40:19.879Z,95767.94
2018-05-25T14:42:48.138Z,95765.18
2018-05-25T14:45:16.389Z,95761.93
2018-05-25T14:47:45.650Z,95761.53
2018-05-25T14:50:13.902Z,95767.88
2018-05-25T14:52:42.149Z,95763.08
2018-05-25T14:55:10.387Z,95773.48
2018-05-25T14:57:38.623Z,95770.59
2018-05-25T15:00:07.057Z,95773.97
2018-05-25T15:02:36.067Z,95788.89
2018-05-25T15:05:04.317Z,95796.96
2018-05-25T15:07:33.354Z,95805.00
2018-05-25T15:10:02.414Z,95808.05
2018-05-25T15:12:31.422Z,95802.42
2018-05-25T15:14:59.661Z,95803.62
2018-05-25T15:17:27.898Z,95799.08
2018-05-25T15:19:56.139Z,95793.42
2018-05-25T15:22:24.376Z,95795.70
2018-05-25T15:24:52.617Z,95801.19
2018-05-25T15:27:21.171Z,95808.42
2018-05-25T15:29:49.419Z,95811.70
2018-05-25T15:32:17.642Z,95816.45
2018-05-25T15:34:45.998Z,95816.05
2018-05-25T15:37:15.005Z,95811.89
2018-05-25T15:39:43.271Z,95819.80
2018-05-25T15:42:11.523Z,95807.08
2018-05-25T15:44:39.756Z,95811.48
2018-05-25T15:47:08.006Z,95819.80
2018-05-25T15:49:36.262Z,95817.45
2018-05-25T15:52:05.351Z,95813.52
2018-05-25T15:54:34.358Z,95810.56
2018-05-25T15:57:02.604Z,95817.52
2018-05-25T15:59:31.010Z,95813.76
2018-05-25T16:02:00.028Z,95806.63
2018-05-25T16:04:28.264Z,95798.53
2018-05-25T16:06:56.510Z,95802.47
2018-05-25T16:09:25.147Z,95805.81
2018-05-25T16:11:53.451Z,95798.22
2018-05-25T16:14:21.773Z,95799.71
2018-05-25T16:16:50.786Z,95797.31
2018-05-25T16:19:19.794Z,95802.27
2018-05-25T16:21:48.043Z,95806.91
2018-05-25T16:24:17.046Z,95813.16
2018-05-25T16:26:46.061Z,95814.09
2018-05-25T16:29:14.307Z,95813.36
2018-05-25T16:31:43.313Z,95813.30
2018-05-25T16:34:11.580Z,95809.95
2018-05-25T16:36:40.570Z,95814.80
2018-05-25T16:39:09.982Z,95815.67
2018-05-25T16:41:38.981Z,95812.28
2018-05-25T16:44:07.213Z,95812.84
2018-05-25T16:46:35.630Z,95820.57
2018-05-25T16:49:03.870Z,95822.09
2018-05-25T16:51:32.107Z,95822.25
2018-05-25T16:54:00.361Z,95818.48
2018-05-25T16:56:28.591Z,95821.05
2018-05-25T16:58:56.913Z,95824.84
2018-05-25T17:01:25.108Z,95825.03
2018-05-25T17:03:53.339Z,95823.39
2018-05-25T17:06:21.574Z,95824.22
2018-05-25T17:08:49.822Z,95822.53
2018-05-25T17:11:18.072Z,95818.61
2018-05-25T17:13:47.287Z,95825.38
2018-05-25T17:16:15.539Z,95823.38
2018-05-25T17:18:43.765Z,95833.90
2018-05-25T17:21:12.027Z,95834.98
2018-05-25T17:23:40.254Z,95833.23
2018-05-25T17:26:08.497Z,95835.91
2018-05-25T17:28:36.734Z,95830.68
2018-05-25T17:31:05.752Z,95834.06
2018-05-25T17:33:33.981Z,95836.98
2018-05-25T17:36:02.279Z,95839.67
2018-05-25T17:38:30.494Z,95841.64
2018-05-25T17:40:58.829Z,95842.91
2018-05-25T17:43:27.827Z,95850.16
2018-05-25T17:45:56.087Z,95848.00
2018-05-25T17:48:25.094Z,95852.21
2018-05-25T17:50:54.116Z,95858.22
2018-05-25T17:53:22.365Z,95850.68
2018-05-25T17:55:51.383Z,95852.47
2018-05-25T17:58:19.625Z,95850.33
2018-05-25T18:00:48.617Z,95859.73
2018-05-25T18:03:17.641Z,95857.08
2018-05-25T18:05:45.898Z,95855.09
2018-05-25T18:08:14.143Z,95863.46
2018-05-25T18:10:43.151Z,95863.46
2018-05-25T18:13:12.164Z,95869.66
2018-05-25T18:15:40.393Z,95865.03
2018-05-25T18:18:08.634Z,95862.09
2018-05-25T18:20:36.879Z,95869.64
2018-05-25T18:23:05.870Z,95869.20
2018-05-25T18:25:34.896Z,95872.61
2018-05-25T18:28:03.130Z,95873.19
2018-05-25T18:30:32.138Z,95866.77
2018-05-25T18:33:01.151Z,95870.13
2018-05-25T18:35:29.594Z,95878.73
2018-05-25T18:37:58.603Z,95879.95
2018-05-25T18:40:27.605Z,95891.53
2018-05-25T18:42:55.854Z,95878.37
2018-05-25T18:45:24.936Z,95883.06
2018-05-25T18:47:53.156Z,95880.76
2018-05-25T18:50:21.397Z,95879.49
2018-05-25T18:52:50.436Z,95888.14
2018-05-25T18:55:18.675Z,95887.91
2018-05-25T18:57:46.914Z,95884.98
2018-05-25T19:00:15.157Z,95880.27
2018-05-25T19:02:43.386Z,95884.08
2018-05-25T19:05:11.635Z,95887.10
2018-05-25T19:07:39.870Z,95893.34
2018-05-25T19:10:08.139Z,95897.00
2018-05-25T19:12:37.130Z,95900.57
2018-05-25T19:15:06.147Z,95901.02
2018-05-25T19:17:34.390Z,95901.50
2018-05-25T19:20:03.407Z,95907.06
2018-05-25T19:22:31.654Z,95906.23
2018-05-25T19:25:00.658Z,95908.86
2018-05-25T19:27:29.660Z,95912.42
2018-05-25T19:29:57.915Z,95916.45
2018-05-25T19:32:26.929Z,95919.56
2018-05-25T19:34:55.917Z,95916.21
2018-05-25T19:37:24.175Z,95917.70
2018-05-25T19:39:52.422Z,95922.58
2018-05-25T19:42:20.665Z,95927.00
2018-05-25T19:44:48.914Z,95925.28
2018-05-25T19:47:17.914Z,95924.88
2018-05-25T19:49:47.314Z,95923.95
2018-05-25T19:52:16.330Z,95930.18
2018-05-25T19:54:44.568Z,95923.55
2018-05-25T19:57:12.953Z,95927.36
2018-05-25T19:59:41.954Z,95927.28
2018-05-25T20:02:10.953Z,95926.80
2018-05-25T20:04:39.957Z,95929.91
2018-05-25T20:07:08.245Z,95933.61
2018-05-25T20:09:37.343Z,95935.27
2018-05-25T20:12:06.323Z,95934.62
2018-05-25T20:14:34.575Z,95938.52
2018-05-25T20:17:03.579Z,95938.42
2018-05-25T20:19:32.595Z,95944.55
2018-05-25T20:22:00.826Z,95941.81
2018-05-25T20:24:29.835Z,95944.11
2018-05-25T20:26:58.849Z,95941.31
2018-05-25T20:29:27.120Z,95938.27
2018-05-25T20:31:55.362Z,95941.86
2018-05-25T20:34:23.633Z,95936.92
2018-05-25T20:36:51.862Z,95941.93
2018-05-25T20:39:20.098Z,95934.39
2018-05-25T20:41:49.134Z,95934.83
2018-05-25T20:44:17.382Z,95929.34
2018-05-25T20:46:45.635Z,95932.77
2018-05-25T20:49:13.885Z,95927.83
2018-05-25T20:51:42.134Z,95936.69
2018-05-25T20:54:10.382Z,95936.02
2018-05-25T20:56:39.382Z,95923.77
2018-05-25T20:59:07.629Z,95921.66
2018-05-25T21:01:35.862Z,95923.19
2018-05-25T21:04:04.099Z,95931.47
2018-05-25T21:06:33.169Z,95929.45
2018-05-25T21:09:01.423Z,95928.97
2018-05-25T21:11:29.679Z,95929.81
2018-05-25T21:13:57.915Z,95933.42
2018-05-25T21:16:26.914Z,95938.36
2018-05-25T21:18:55.936Z,95930.44
2018-05-25T21:21:24.169Z,95934.90
2018-05-25T21:23:52.410Z,95927.75
2018-05-25T21:26:20.654Z,95927.12
2018-05-25T21:28:48.882Z,95923.67
2018-05-25T21:31:17.133Z,95927.62
2018-05-25T21:33:45.382Z,95931.33
2018-05-25T21:36:13.835Z,95931.95
2018-05-25T21:38:42.839Z,95933.06
2018-05-25T21:41:11.082Z,95935.50
2018-05-25T21:43:39.798Z,95930.95
2018-05-25T21:46:08.042Z,95934.77
2018-05-25T21:48:36.275Z,95933.58
2018-05-25T21:51:04.726Z,95929.44
2018-05-25T21:53:33.730Z,95929.88
2018-05-25T21:56:01.967Z,95935.95
2018-05-25T21:58:30.214Z,95931.39
2018-05-25T22:00:58.541Z,95931.30
2018-05-25T22:03:27.553Z,95931.20
2018-05-25T22:05:55.786Z,95930.13
2018-05-25T22:08:24.018Z,95938.00
2018-05-25T22:10:52.266Z,95938.32
2018-05-25T22:13:21.286Z,95931.05
2018-05-25T22:15:49.531Z,95932.00
2018-05-25T22:18:18.541Z,95934.75
2018-05-25T22:20:46.787Z,95938.69
2018-05-25T22:23:15.041Z,95937.63
2018-05-25T22:25:43.277Z,95939.80
2018-05-25T22:28:11.729Z,95940.22
2018-05-25T22:30:40.735Z,95942.32
2018-05-25T22:33:08.962Z,95938.70
2018-05-25T22:35:37.219Z,95937.70
2018-05-25T22:38:05.468Z,95938.87
2018-05-25T22:40:33.743Z,95937.48
2018-05-25T22:43:19.765Z,95934.48
2018-05-25T22:46:05.686Z,95932.97
2018-05-25T22:48:51.962Z,95936.98
2018-05-25T22:51:38.024Z,95938.09
2018-05-25T22:54:11.297Z,95936.06
2018-05-25T22:56:40.307Z,95934.73
2018-05-25T22:59:08.546Z,95931.40
2018-05-25T23:01:37.146Z,95932.66
2018-05-25T23:04:06.168Z,95933.60
2018-05-25T23:06:34.410Z,95933.17
2018-05-25T23:09:03.414Z,95935.38
2018-05-25T23:11:31.671Z,95932.56
2018-05-25T23:13:59.903Z,95928.52
2018-05-25T23:19:03.603Z,95927.52
2018-05-25T23:21:31.839Z,95930.22
2018-05-25T23:24:00.087Z,95927.27
2018-05-25T23:26:28.514Z,95922.45
2018-05-25T23:28:56.759Z,95923.02
2018-05-25T23:31:24.990Z,95922.20
2018-05-25T23:33:53.235Z,95927.89
2018-05-25T23:36:22.242Z,95922.19
2018-05-25T23:38:51.482Z,95920.20
2018-05-25T23:41:19.706Z,95924.05
2018-05-25T23:43:48.742Z,95927.41
2018-05-25T23:46:16.969Z,95918.02
2018-05-25T23:48:45.995Z,95921.79
2018-05-25T23:51:14.227Z,95928.34
2018-05-25T23:53:43.254Z,95919.31
2018-05-25T23:56:11.486Z,95920.56
2018-05-25T23:58:40.098Z,95923.67
